sensor_id;sensor_type;location;lat;lon;timestamp;P1;durP1;ratioP1;P2;durP2;ratioP2
71814;SDS011;59659;41.520;23.794;2022-09-03T00:01:08;13.40;;;5.73;;
71814;SDS011;59659;41.520;23.794;2022-09-03T00:02:26;7.87;;;5.50;;
71814;SDS011;59659;41.520;23.794;2022-09-03T00:03:51;11.30;;;6.20;;
71814;SDS011;59659;41.520;23.794;2022-09-03T00:05:48;8.67;;;4.93;;
71814;SDS011;59659;41.520;23.794;2022-09-03T00:06:45;13.00;;;5.40;;
71814;SDS011;59659;41.520;23.794;2022-09-03T00:08:01;11.73;;;5.23;;
71814;SDS011;59659;41.520;23.794;2022-09-03T00:09:16;8.50;;;5.30;;
71814;SDS011;59659;41.520;23.794;2022-09-03T00:10:33;11.30;;;5.47;;
71814;SDS011;59659;41.520;23.794;2022-09-03T00:13:36;9.90;;;5.67;;
71814;SDS011;59659;41.520;23.794;2022-09-03T00:14:49;12.00;;;5.93;;
71814;SDS011;59659;41.520;23.794;2022-09-03T00:16:05;11.67;;;5.90;;
71814;SDS011;59659;41.520;23.794;2022-09-03T00:17:24;11.13;;;6.23;;
71814;SDS011;59659;41.520;23.794;2022-09-03T00:18:49;11.73;;;5.90;;
71814;SDS011;59659;41.520;23.794;2022-09-03T00:20:05;12.03;;;6.63;;
71814;SDS011;59659;41.520;23.794;2022-09-03T00:21:20;12.83;;;5.90;;
71814;SDS011;59659;41.520;23.794;2022-09-03T00:22:36;12.37;;;5.67;;
71814;SDS011;59659;41.520;23.794;2022-09-03T00:23:49;49.87;;;7.37;;
71814;SDS011;59659;41.520;23.794;2022-09-03T00:25:03;14.20;;;5.97;;
71814;SDS011;59659;41.520;23.794;2022-09-03T00:26:21;17.03;;;6.00;;
71814;SDS011;59659;41.520;23.794;2022-09-03T00:27:36;11.63;;;5.33;;
71814;SDS011;59659;41.520;23.794;2022-09-03T00:29:00;48.17;;;6.93;;
71814;SDS011;59659;41.520;23.794;2022-09-03T00:30:14;41.50;;;6.20;;
71814;SDS011;59659;41.520;23.794;2022-09-03T00:32:41;32.07;;;6.53;;
71814;SDS011;59659;41.520;23.794;2022-09-03T00:33:59;93.20;;;9.70;;
71814;SDS011;59659;41.520;23.794;2022-09-03T00:36:44;14.37;;;6.07;;
71814;SDS011;59659;41.520;23.794;2022-09-03T00:37:56;27.13;;;6.33;;
71814;SDS011;59659;41.520;23.794;2022-09-03T00:39:14;24.70;;;8.13;;
71814;SDS011;59659;41.520;23.794;2022-09-03T00:42:03;65.63;;;9.10;;
71814;SDS011;59659;41.520;23.794;2022-09-03T00:46:07;47.97;;;7.80;;
71814;SDS011;59659;41.520;23.794;2022-09-03T00:47:26;38.93;;;7.43;;
71814;SDS011;59659;41.520;23.794;2022-09-03T00:51:28;16.00;;;7.20;;
71814;SDS011;59659;41.520;23.794;2022-09-03T00:54:13;18.43;;;6.83;;
71814;SDS011;59659;41.520;23.794;2022-09-03T01:00:52;20.13;;;7.20;;
71814;SDS011;59659;41.520;23.794;2022-09-03T01:05:09;21.93;;;7.43;;
71814;SDS011;59659;41.520;23.794;2022-09-03T01:06:34;14.33;;;6.60;;
71814;SDS011;59659;41.520;23.794;2022-09-03T01:10:14;14.63;;;7.73;;
71814;SDS011;59659;41.520;23.794;2022-09-03T01:13:19;27.57;;;7.57;;
71814;SDS011;59659;41.520;23.794;2022-09-03T01:17:20;23.07;;;6.20;;
71814;SDS011;59659;41.520;23.794;2022-09-03T01:21:31;20.07;;;5.60;;
71814;SDS011;59659;41.520;23.794;2022-09-03T01:29:28;9.77;;;5.77;;
71814;SDS011;59659;41.520;23.794;2022-09-03T01:30:42;11.23;;;6.13;;
71814;SDS011;59659;41.520;23.794;2022-09-03T01:32:00;12.57;;;6.60;;
71814;SDS011;59659;41.520;23.794;2022-09-03T01:33:28;12.77;;;6.10;;
71814;SDS011;59659;41.520;23.794;2022-09-03T01:34:46;11.00;;;6.47;;
71814;SDS011;59659;41.520;23.794;2022-09-03T01:37:18;8.93;;;5.57;;
71814;SDS011;59659;41.520;23.794;2022-09-03T01:38:42;15.77;;;6.13;;
71814;SDS011;59659;41.520;23.794;2022-09-03T01:40:10;10.10;;;4.93;;
71814;SDS011;59659;41.520;23.794;2022-09-03T01:46:23;16.10;;;7.33;;
71814;SDS011;59659;41.520;23.794;2022-09-03T01:52:18;9.23;;;5.73;;
71814;SDS011;59659;41.520;23.794;2022-09-03T01:54:12;18.97;;;6.43;;
71814;SDS011;59659;41.520;23.794;2022-09-03T01:58:22;16.83;;;5.57;;
71814;SDS011;59659;41.520;23.794;2022-09-03T01:59:39;19.57;;;5.77;;
71814;SDS011;59659;41.520;23.794;2022-09-03T02:00:55;13.17;;;4.87;;
71814;SDS011;59659;41.520;23.794;2022-09-03T02:02:22;13.00;;;5.37;;
71814;SDS011;59659;41.520;23.794;2022-09-03T02:03:37;11.30;;;5.07;;
71814;SDS011;59659;41.520;23.794;2022-09-03T02:04:58;9.50;;;5.13;;
71814;SDS011;59659;41.520;23.794;2022-09-03T02:06:10;10.23;;;4.97;;
71814;SDS011;59659;41.520;23.794;2022-09-03T02:07:22;25.03;;;5.27;;
71814;SDS011;59659;41.520;23.794;2022-09-03T02:08:34;28.20;;;6.07;;
71814;SDS011;59659;41.520;23.794;2022-09-03T02:09:46;13.47;;;6.80;;
71814;SDS011;59659;41.520;23.794;2022-09-03T02:10:57;11.10;;;5.20;;
71814;SDS011;59659;41.520;23.794;2022-09-03T02:12:15;10.27;;;5.40;;
71814;SDS011;59659;41.520;23.794;2022-09-03T02:14:44;33.43;;;6.97;;
71814;SDS011;59659;41.520;23.794;2022-09-03T02:15:57;32.70;;;6.60;;
71814;SDS011;59659;41.520;23.794;2022-09-03T02:17:10;23.97;;;5.30;;
71814;SDS011;59659;41.520;23.794;2022-09-03T02:18:23;29.30;;;6.07;;
71814;SDS011;59659;41.520;23.794;2022-09-03T02:19:35;12.73;;;5.97;;
71814;SDS011;59659;41.520;23.794;2022-09-03T02:20:48;13.13;;;5.40;;
71814;SDS011;59659;41.520;23.794;2022-09-03T02:22:00;17.17;;;5.60;;
71814;SDS011;59659;41.520;23.794;2022-09-03T02:23:11;14.13;;;5.47;;
71814;SDS011;59659;41.520;23.794;2022-09-03T02:24:23;11.73;;;5.27;;
71814;SDS011;59659;41.520;23.794;2022-09-03T02:25:36;12.03;;;6.17;;
71814;SDS011;59659;41.520;23.794;2022-09-03T02:26:48;13.27;;;6.37;;
71814;SDS011;59659;41.520;23.794;2022-09-03T02:28:00;13.67;;;5.77;;
71814;SDS011;59659;41.520;23.794;2022-09-03T02:29:12;17.93;;;6.93;;
71814;SDS011;59659;41.520;23.794;2022-09-03T02:30:24;11.73;;;6.33;;
71814;SDS011;59659;41.520;23.794;2022-09-03T02:31:35;15.03;;;5.77;;
71814;SDS011;59659;41.520;23.794;2022-09-03T02:32:47;12.53;;;6.30;;
71814;SDS011;59659;41.520;23.794;2022-09-03T02:33:58;13.93;;;7.10;;
71814;SDS011;59659;41.520;23.794;2022-09-03T02:35:10;17.87;;;6.97;;
71814;SDS011;59659;41.520;23.794;2022-09-03T02:36:24;13.80;;;6.60;;
71814;SDS011;59659;41.520;23.794;2022-09-03T02:37:37;12.90;;;6.57;;
71814;SDS011;59659;41.520;23.794;2022-09-03T02:38:49;15.07;;;7.20;;
71814;SDS011;59659;41.520;23.794;2022-09-03T02:40:01;20.17;;;7.20;;
71814;SDS011;59659;41.520;23.794;2022-09-03T02:41:16;18.17;;;8.00;;
71814;SDS011;59659;41.520;23.794;2022-09-03T02:42:28;31.20;;;7.70;;
71814;SDS011;59659;41.520;23.794;2022-09-03T02:43:41;25.60;;;6.97;;
71814;SDS011;59659;41.520;23.794;2022-09-03T02:44:54;23.80;;;7.70;;
71814;SDS011;59659;41.520;23.794;2022-09-03T02:46:09;32.43;;;8.77;;
71814;SDS011;59659;41.520;23.794;2022-09-03T02:47:23;17.17;;;7.50;;
71814;SDS011;59659;41.520;23.794;2022-09-03T02:48:39;17.00;;;7.10;;
71814;SDS011;59659;41.520;23.794;2022-09-03T02:49:50;38.37;;;8.90;;
71814;SDS011;59659;41.520;23.794;2022-09-03T02:51:03;30.30;;;7.87;;
71814;SDS011;59659;41.520;23.794;2022-09-03T02:52:24;28.60;;;6.87;;
71814;SDS011;59659;41.520;23.794;2022-09-03T02:53:36;43.30;;;6.60;;
71814;SDS011;59659;41.520;23.794;2022-09-03T02:54:47;41.30;;;6.10;;
71814;SDS011;59659;41.520;23.794;2022-09-03T02:55:59;31.33;;;7.87;;
71814;SDS011;59659;41.520;23.794;2022-09-03T02:57:12;35.67;;;6.83;;
71814;SDS011;59659;41.520;23.794;2022-09-03T02:58:24;30.70;;;5.43;;
71814;SDS011;59659;41.520;23.794;2022-09-03T02:59:36;23.53;;;6.63;;
71814;SDS011;59659;41.520;23.794;2022-09-03T03:00:49;46.23;;;6.60;;
71814;SDS011;59659;41.520;23.794;2022-09-03T03:02:02;20.77;;;6.27;;
71814;SDS011;59659;41.520;23.794;2022-09-03T03:03:14;36.37;;;7.17;;
71814;SDS011;59659;41.520;23.794;2022-09-03T03:04:26;18.63;;;6.80;;
71814;SDS011;59659;41.520;23.794;2022-09-03T03:05:42;23.40;;;7.23;;
71814;SDS011;59659;41.520;23.794;2022-09-03T03:06:54;21.33;;;7.53;;
71814;SDS011;59659;41.520;23.794;2022-09-03T03:08:06;16.57;;;6.67;;
71814;SDS011;59659;41.520;23.794;2022-09-03T03:09:19;15.90;;;6.77;;
71814;SDS011;59659;41.520;23.794;2022-09-03T03:10:30;17.47;;;6.77;;
71814;SDS011;59659;41.520;23.794;2022-09-03T03:11:42;18.90;;;6.43;;
71814;SDS011;59659;41.520;23.794;2022-09-03T03:12:53;19.57;;;6.53;;
71814;SDS011;59659;41.520;23.794;2022-09-03T03:14:05;17.23;;;6.67;;
71814;SDS011;59659;41.520;23.794;2022-09-03T03:15:17;12.73;;;5.20;;
71814;SDS011;59659;41.520;23.794;2022-09-03T03:16:29;9.97;;;6.13;;
71814;SDS011;59659;41.520;23.794;2022-09-03T03:17:41;15.93;;;6.23;;
71814;SDS011;59659;41.520;23.794;2022-09-03T03:18:54;15.43;;;6.80;;
71814;SDS011;59659;41.520;23.794;2022-09-03T03:20:06;12.10;;;6.40;;
71814;SDS011;59659;41.520;23.794;2022-09-03T03:21:18;11.93;;;6.73;;
71814;SDS011;59659;41.520;23.794;2022-09-03T03:22:30;11.17;;;6.50;;
71814;SDS011;59659;41.520;23.794;2022-09-03T03:23:41;11.23;;;6.37;;
71814;SDS011;59659;41.520;23.794;2022-09-03T03:24:53;10.50;;;6.23;;
71814;SDS011;59659;41.520;23.794;2022-09-03T03:26:06;10.47;;;5.93;;
71814;SDS011;59659;41.520;23.794;2022-09-03T03:27:18;9.73;;;6.37;;
71814;SDS011;59659;41.520;23.794;2022-09-03T03:28:32;10.87;;;6.00;;
71814;SDS011;59659;41.520;23.794;2022-09-03T03:29:44;9.27;;;5.73;;
71814;SDS011;59659;41.520;23.794;2022-09-03T03:30:56;11.77;;;5.37;;
71814;SDS011;59659;41.520;23.794;2022-09-03T03:32:07;11.20;;;6.00;;
71814;SDS011;59659;41.520;23.794;2022-09-03T03:33:19;13.27;;;6.10;;
71814;SDS011;59659;41.520;23.794;2022-09-03T03:34:32;16.20;;;6.13;;
71814;SDS011;59659;41.520;23.794;2022-09-03T03:35:43;11.77;;;5.10;;
71814;SDS011;59659;41.520;23.794;2022-09-03T03:36:58;29.07;;;5.53;;
71814;SDS011;59659;41.520;23.794;2022-09-03T03:38:10;35.93;;;6.73;;
71814;SDS011;59659;41.520;23.794;2022-09-03T03:39:21;31.27;;;6.70;;
71814;SDS011;59659;41.520;23.794;2022-09-03T03:40:33;32.70;;;5.90;;
71814;SDS011;59659;41.520;23.794;2022-09-03T03:41:45;10.10;;;5.20;;
71814;SDS011;59659;41.520;23.794;2022-09-03T03:42:57;15.97;;;6.23;;
71814;SDS011;59659;41.520;23.794;2022-09-03T03:44:09;16.00;;;5.50;;
71814;SDS011;59659;41.520;23.794;2022-09-03T03:45:20;18.87;;;5.77;;
71814;SDS011;59659;41.520;23.794;2022-09-03T03:46:33;8.27;;;5.13;;
71814;SDS011;59659;41.520;23.794;2022-09-03T03:47:44;10.63;;;5.93;;
71814;SDS011;59659;41.520;23.794;2022-09-03T03:48:56;16.30;;;5.27;;
71814;SDS011;59659;41.520;23.794;2022-09-03T03:50:08;13.67;;;6.53;;
71814;SDS011;59659;41.520;23.794;2022-09-03T03:51:19;9.20;;;5.53;;
71814;SDS011;59659;41.520;23.794;2022-09-03T03:52:31;11.40;;;6.37;;
71814;SDS011;59659;41.520;23.794;2022-09-03T03:53:43;12.93;;;6.37;;
71814;SDS011;59659;41.520;23.794;2022-09-03T03:54:54;14.73;;;6.40;;
71814;SDS011;59659;41.520;23.794;2022-09-03T03:56:08;10.13;;;6.33;;
71814;SDS011;59659;41.520;23.794;2022-09-03T03:57:20;15.77;;;5.90;;
71814;SDS011;59659;41.520;23.794;2022-09-03T03:58:32;14.93;;;6.60;;
71814;SDS011;59659;41.520;23.794;2022-09-03T03:59:44;18.60;;;6.83;;
71814;SDS011;59659;41.520;23.794;2022-09-03T04:01:02;12.87;;;6.90;;
71814;SDS011;59659;41.520;23.794;2022-09-03T04:02:14;23.63;;;7.03;;
71814;SDS011;59659;41.520;23.794;2022-09-03T04:03:26;13.47;;;7.03;;
71814;SDS011;59659;41.520;23.794;2022-09-03T04:04:39;15.13;;;6.10;;
71814;SDS011;59659;41.520;23.794;2022-09-03T04:05:54;16.43;;;7.07;;
71814;SDS011;59659;41.520;23.794;2022-09-03T04:07:06;22.60;;;6.40;;
71814;SDS011;59659;41.520;23.794;2022-09-03T04:08:21;20.90;;;6.47;;
71814;SDS011;59659;41.520;23.794;2022-09-03T04:09:32;29.03;;;7.80;;
71814;SDS011;59659;41.520;23.794;2022-09-03T04:10:44;20.03;;;7.03;;
71814;SDS011;59659;41.520;23.794;2022-09-03T04:11:55;15.70;;;7.00;;
71814;SDS011;59659;41.520;23.794;2022-09-03T04:13:08;16.90;;;6.77;;
71814;SDS011;59659;41.520;23.794;2022-09-03T04:14:19;22.33;;;7.23;;
71814;SDS011;59659;41.520;23.794;2022-09-03T04:15:32;14.33;;;6.97;;
71814;SDS011;59659;41.520;23.794;2022-09-03T04:16:44;11.33;;;6.37;;
71814;SDS011;59659;41.520;23.794;2022-09-03T04:17:57;10.70;;;7.07;;
71814;SDS011;59659;41.520;23.794;2022-09-03T04:19:09;13.27;;;6.20;;
71814;SDS011;59659;41.520;23.794;2022-09-03T04:20:20;11.50;;;6.33;;
71814;SDS011;59659;41.520;23.794;2022-09-03T04:21:32;12.90;;;6.60;;
71814;SDS011;59659;41.520;23.794;2022-09-03T04:22:43;11.80;;;5.87;;
71814;SDS011;59659;41.520;23.794;2022-09-03T04:23:59;9.73;;;6.93;;
71814;SDS011;59659;41.520;23.794;2022-09-03T04:25:10;11.73;;;6.20;;
71814;SDS011;59659;41.520;23.794;2022-09-03T04:26:23;9.47;;;5.50;;
71814;SDS011;59659;41.520;23.794;2022-09-03T04:27:35;11.63;;;6.17;;
71814;SDS011;59659;41.520;23.794;2022-09-03T04:28:47;13.70;;;5.60;;
71814;SDS011;59659;41.520;23.794;2022-09-03T04:29:58;12.47;;;5.73;;
71814;SDS011;59659;41.520;23.794;2022-09-03T04:31:12;9.03;;;5.93;;
71814;SDS011;59659;41.520;23.794;2022-09-03T04:32:24;11.70;;;5.43;;
71814;SDS011;59659;41.520;23.794;2022-09-03T04:33:54;14.33;;;6.70;;
71814;SDS011;59659;41.520;23.794;2022-09-03T04:35:06;13.27;;;5.57;;
71814;SDS011;59659;41.520;23.794;2022-09-03T04:36:18;9.60;;;5.73;;
71814;SDS011;59659;41.520;23.794;2022-09-03T04:37:33;10.47;;;5.70;;
71814;SDS011;59659;41.520;23.794;2022-09-03T04:38:46;14.97;;;5.73;;
71814;SDS011;59659;41.520;23.794;2022-09-03T04:39:58;10.17;;;6.20;;
71814;SDS011;59659;41.520;23.794;2022-09-03T04:41:10;12.27;;;6.23;;
71814;SDS011;59659;41.520;23.794;2022-09-03T04:42:22;11.10;;;5.90;;
71814;SDS011;59659;41.520;23.794;2022-09-03T04:43:34;12.50;;;5.90;;
71814;SDS011;59659;41.520;23.794;2022-09-03T04:44:46;10.30;;;5.93;;
71814;SDS011;59659;41.520;23.794;2022-09-03T04:45:58;8.70;;;5.33;;
71814;SDS011;59659;41.520;23.794;2022-09-03T04:47:10;12.13;;;5.67;;
71814;SDS011;59659;41.520;23.794;2022-09-03T04:48:21;15.80;;;5.83;;
71814;SDS011;59659;41.520;23.794;2022-09-03T04:49:33;9.97;;;6.07;;
71814;SDS011;59659;41.520;23.794;2022-09-03T04:50:45;14.93;;;5.50;;
71814;SDS011;59659;41.520;23.794;2022-09-03T04:51:56;10.70;;;5.80;;
71814;SDS011;59659;41.520;23.794;2022-09-03T04:53:08;8.53;;;5.23;;
71814;SDS011;59659;41.520;23.794;2022-09-03T04:54:19;10.97;;;5.37;;
71814;SDS011;59659;41.520;23.794;2022-09-03T04:55:36;11.63;;;5.30;;
71814;SDS011;59659;41.520;23.794;2022-09-03T04:56:48;11.40;;;5.73;;
71814;SDS011;59659;41.520;23.794;2022-09-03T04:58:00;15.53;;;5.53;;
71814;SDS011;59659;41.520;23.794;2022-09-03T04:59:11;8.73;;;4.77;;
71814;SDS011;59659;41.520;23.794;2022-09-03T05:00:23;10.87;;;5.83;;
71814;SDS011;59659;41.520;23.794;2022-09-03T05:01:36;13.03;;;5.50;;
71814;SDS011;59659;41.520;23.794;2022-09-03T05:02:48;14.73;;;5.63;;
71814;SDS011;59659;41.520;23.794;2022-09-03T05:04:02;14.40;;;5.20;;
71814;SDS011;59659;41.520;23.794;2022-09-03T05:05:15;12.50;;;5.60;;
71814;SDS011;59659;41.520;23.794;2022-09-03T05:06:27;16.17;;;6.10;;
71814;SDS011;59659;41.520;23.794;2022-09-03T05:07:38;25.20;;;6.93;;
71814;SDS011;59659;41.520;23.794;2022-09-03T05:08:51;12.00;;;5.77;;
71814;SDS011;59659;41.520;23.794;2022-09-03T05:10:07;10.67;;;5.60;;
71814;SDS011;59659;41.520;23.794;2022-09-03T05:11:19;9.73;;;5.63;;
71814;SDS011;59659;41.520;23.794;2022-09-03T05:12:31;9.43;;;5.30;;
71814;SDS011;59659;41.520;23.794;2022-09-03T05:13:46;6.57;;;4.57;;
71814;SDS011;59659;41.520;23.794;2022-09-03T05:14:58;10.93;;;6.40;;
71814;SDS011;59659;41.520;23.794;2022-09-03T05:16:10;9.30;;;5.60;;
71814;SDS011;59659;41.520;23.794;2022-09-03T05:17:23;9.03;;;4.67;;
71814;SDS011;59659;41.520;23.794;2022-09-03T05:18:35;11.30;;;5.17;;
71814;SDS011;59659;41.520;23.794;2022-09-03T05:19:46;9.90;;;5.17;;
71814;SDS011;59659;41.520;23.794;2022-09-03T05:20:59;13.93;;;5.03;;
71814;SDS011;59659;41.520;23.794;2022-09-03T05:22:12;14.77;;;6.23;;
71814;SDS011;59659;41.520;23.794;2022-09-03T05:23:24;9.67;;;6.07;;
71814;SDS011;59659;41.520;23.794;2022-09-03T05:24:35;11.90;;;5.90;;
71814;SDS011;59659;41.520;23.794;2022-09-03T05:25:53;12.30;;;5.93;;
71814;SDS011;59659;41.520;23.794;2022-09-03T05:27:07;13.50;;;7.07;;
71814;SDS011;59659;41.520;23.794;2022-09-03T05:28:21;10.87;;;6.20;;
71814;SDS011;59659;41.520;23.794;2022-09-03T05:29:32;9.67;;;6.00;;
71814;SDS011;59659;41.520;23.794;2022-09-03T05:30:44;9.83;;;6.50;;
71814;SDS011;59659;41.520;23.794;2022-09-03T05:31:55;10.67;;;6.50;;
71814;SDS011;59659;41.520;23.794;2022-09-03T05:33:08;8.40;;;5.90;;
71814;SDS011;59659;41.520;23.794;2022-09-03T05:34:20;12.43;;;6.30;;
71814;SDS011;59659;41.520;23.794;2022-09-03T05:35:31;11.37;;;5.27;;
71814;SDS011;59659;41.520;23.794;2022-09-03T05:36:43;10.00;;;5.43;;
71814;SDS011;59659;41.520;23.794;2022-09-03T05:37:59;10.20;;;5.83;;
71814;SDS011;59659;41.520;23.794;2022-09-03T05:39:11;45.57;;;21.20;;
71814;SDS011;59659;41.520;23.794;2022-09-03T05:40:23;35.27;;;19.60;;
71814;SDS011;59659;41.520;23.794;2022-09-03T05:41:34;36.63;;;15.87;;
71814;SDS011;59659;41.520;23.794;2022-09-03T05:42:46;11.57;;;6.43;;
71814;SDS011;59659;41.520;23.794;2022-09-03T05:43:57;8.63;;;6.07;;
71814;SDS011;59659;41.520;23.794;2022-09-03T05:45:10;11.40;;;6.00;;
71814;SDS011;59659;41.520;23.794;2022-09-03T05:46:22;10.27;;;5.90;;
71814;SDS011;59659;41.520;23.794;2022-09-03T05:47:37;11.27;;;5.63;;
71814;SDS011;59659;41.520;23.794;2022-09-03T05:48:51;11.47;;;7.00;;
71814;SDS011;59659;41.520;23.794;2022-09-03T05:50:04;11.70;;;7.43;;
71814;SDS011;59659;41.520;23.794;2022-09-03T05:51:16;14.20;;;7.33;;
71814;SDS011;59659;41.520;23.794;2022-09-03T05:52:28;12.03;;;7.27;;
71814;SDS011;59659;41.520;23.794;2022-09-03T05:53:40;14.70;;;6.53;;
71814;SDS011;59659;41.520;23.794;2022-09-03T05:54:51;11.57;;;7.10;;
71814;SDS011;59659;41.520;23.794;2022-09-03T05:56:07;12.33;;;6.40;;
71814;SDS011;59659;41.520;23.794;2022-09-03T05:57:21;10.30;;;5.90;;
71814;SDS011;59659;41.520;23.794;2022-09-03T05:58:33;11.07;;;6.77;;
71814;SDS011;59659;41.520;23.794;2022-09-03T05:59:45;12.73;;;7.10;;
71814;SDS011;59659;41.520;23.794;2022-09-03T06:00:56;17.57;;;8.00;;
71814;SDS011;59659;41.520;23.794;2022-09-03T06:02:08;13.77;;;7.90;;
71814;SDS011;59659;41.520;23.794;2022-09-03T06:03:22;11.53;;;6.23;;
71814;SDS011;59659;41.520;23.794;2022-09-03T06:04:34;10.43;;;6.87;;
71814;SDS011;59659;41.520;23.794;2022-09-03T06:05:52;12.03;;;7.40;;
71814;SDS011;59659;41.520;23.794;2022-09-03T06:07:04;9.00;;;6.87;;
71814;SDS011;59659;41.520;23.794;2022-09-03T06:08:16;14.47;;;7.47;;
71814;SDS011;59659;41.520;23.794;2022-09-03T06:09:29;13.27;;;7.60;;
71814;SDS011;59659;41.520;23.794;2022-09-03T06:10:40;11.57;;;6.77;;
71814;SDS011;59659;41.520;23.794;2022-09-03T06:11:52;15.77;;;7.37;;
71814;SDS011;59659;41.520;23.794;2022-09-03T06:13:07;12.70;;;6.43;;
71814;SDS011;59659;41.520;23.794;2022-09-03T06:14:19;11.50;;;6.70;;
71814;SDS011;59659;41.520;23.794;2022-09-03T06:15:30;14.40;;;6.60;;
71814;SDS011;59659;41.520;23.794;2022-09-03T06:16:43;11.97;;;5.93;;
71814;SDS011;59659;41.520;23.794;2022-09-03T06:17:55;11.63;;;6.10;;
71814;SDS011;59659;41.520;23.794;2022-09-03T06:19:07;10.17;;;6.20;;
71814;SDS011;59659;41.520;23.794;2022-09-03T06:20:20;11.77;;;6.67;;
71814;SDS011;59659;41.520;23.794;2022-09-03T06:21:32;9.97;;;6.27;;
71814;SDS011;59659;41.520;23.794;2022-09-03T06:22:47;13.57;;;9.00;;
71814;SDS011;59659;41.520;23.794;2022-09-03T06:23:58;11.40;;;6.27;;
71814;SDS011;59659;41.520;23.794;2022-09-03T06:25:10;9.67;;;6.10;;
71814;SDS011;59659;41.520;23.794;2022-09-03T06:26:22;10.20;;;6.10;;
71814;SDS011;59659;41.520;23.794;2022-09-03T06:27:34;10.73;;;6.77;;
71814;SDS011;59659;41.520;23.794;2022-09-03T06:28:46;11.03;;;6.73;;
71814;SDS011;59659;41.520;23.794;2022-09-03T06:29:58;12.60;;;7.27;;
71814;SDS011;59659;41.520;23.794;2022-09-03T06:31:11;12.40;;;7.83;;
71814;SDS011;59659;41.520;23.794;2022-09-03T06:32:23;10.10;;;6.37;;
71814;SDS011;59659;41.520;23.794;2022-09-03T06:33:35;12.77;;;6.20;;
71814;SDS011;59659;41.520;23.794;2022-09-03T06:34:47;13.10;;;7.00;;
71814;SDS011;59659;41.520;23.794;2022-09-03T06:35:59;10.87;;;6.30;;
71814;SDS011;59659;41.520;23.794;2022-09-03T06:37:15;10.20;;;7.03;;
71814;SDS011;59659;41.520;23.794;2022-09-03T06:38:28;14.70;;;6.67;;
71814;SDS011;59659;41.520;23.794;2022-09-03T06:39:42;8.67;;;5.40;;
71814;SDS011;59659;41.520;23.794;2022-09-03T06:40:54;8.83;;;5.40;;
71814;SDS011;59659;41.520;23.794;2022-09-03T06:42:06;7.53;;;4.73;;
71814;SDS011;59659;41.520;23.794;2022-09-03T06:43:19;8.13;;;4.90;;
71814;SDS011;59659;41.520;23.794;2022-09-03T06:44:31;10.27;;;5.47;;
71814;SDS011;59659;41.520;23.794;2022-09-03T06:45:43;9.87;;;5.67;;
71814;SDS011;59659;41.520;23.794;2022-09-03T06:46:55;8.60;;;5.70;;
71814;SDS011;59659;41.520;23.794;2022-09-03T06:48:06;9.40;;;5.33;;
71814;SDS011;59659;41.520;23.794;2022-09-03T06:49:18;10.13;;;5.80;;
71814;SDS011;59659;41.520;23.794;2022-09-03T06:50:30;9.93;;;5.07;;
71814;SDS011;59659;41.520;23.794;2022-09-03T06:51:45;16.00;;;5.07;;
71814;SDS011;59659;41.520;23.794;2022-09-03T06:52:56;10.20;;;5.93;;
71814;SDS011;59659;41.520;23.794;2022-09-03T06:54:09;8.60;;;5.20;;
71814;SDS011;59659;41.520;23.794;2022-09-03T06:55:21;9.07;;;5.67;;
71814;SDS011;59659;41.520;23.794;2022-09-03T06:56:33;8.10;;;5.03;;
71814;SDS011;59659;41.520;23.794;2022-09-03T06:57:54;9.27;;;5.87;;
71814;SDS011;59659;41.520;23.794;2022-09-03T06:59:08;10.77;;;6.20;;
71814;SDS011;59659;41.520;23.794;2022-09-03T07:00:20;10.27;;;5.80;;
71814;SDS011;59659;41.520;23.794;2022-09-03T07:01:32;11.57;;;7.13;;
71814;SDS011;59659;41.520;23.794;2022-09-03T07:02:46;15.87;;;7.67;;
71814;SDS011;59659;41.520;23.794;2022-09-03T07:03:59;20.67;;;10.57;;
71814;SDS011;59659;41.520;23.794;2022-09-03T07:05:11;13.83;;;8.70;;
71814;SDS011;59659;41.520;23.794;2022-09-03T07:06:24;9.47;;;6.63;;
71814;SDS011;59659;41.520;23.794;2022-09-03T07:07:35;8.17;;;4.93;;
71814;SDS011;59659;41.520;23.794;2022-09-03T07:08:48;11.87;;;6.33;;
71814;SDS011;59659;41.520;23.794;2022-09-03T07:10:00;9.20;;;6.20;;
71814;SDS011;59659;41.520;23.794;2022-09-03T07:11:12;8.07;;;5.57;;
71814;SDS011;59659;41.520;23.794;2022-09-03T07:12:24;8.30;;;6.10;;
71814;SDS011;59659;41.520;23.794;2022-09-03T07:13:36;9.70;;;6.73;;
71814;SDS011;59659;41.520;23.794;2022-09-03T07:14:50;8.83;;;5.97;;
71814;SDS011;59659;41.520;23.794;2022-09-03T07:16:05;10.80;;;5.70;;
71814;SDS011;59659;41.520;23.794;2022-09-03T07:17:17;9.03;;;5.97;;
71814;SDS011;59659;41.520;23.794;2022-09-03T07:18:29;9.63;;;5.83;;
71814;SDS011;59659;41.520;23.794;2022-09-03T07:19:41;8.33;;;5.97;;
71814;SDS011;59659;41.520;23.794;2022-09-03T07:20:56;8.37;;;5.30;;
71814;SDS011;59659;41.520;23.794;2022-09-03T07:22:08;9.90;;;6.00;;
71814;SDS011;59659;41.520;23.794;2022-09-03T07:23:20;7.77;;;5.93;;
71814;SDS011;59659;41.520;23.794;2022-09-03T07:24:31;9.73;;;6.00;;
71814;SDS011;59659;41.520;23.794;2022-09-03T07:25:43;9.43;;;6.10;;
71814;SDS011;59659;41.520;23.794;2022-09-03T07:26:54;10.03;;;5.93;;
71814;SDS011;59659;41.520;23.794;2022-09-03T07:28:07;10.23;;;5.67;;
71814;SDS011;59659;41.520;23.794;2022-09-03T07:29:18;9.47;;;5.43;;
71814;SDS011;59659;41.520;23.794;2022-09-03T07:30:31;11.27;;;5.97;;
71814;SDS011;59659;41.520;23.794;2022-09-03T07:31:43;9.93;;;5.93;;
71814;SDS011;59659;41.520;23.794;2022-09-03T07:32:54;10.27;;;5.37;;
71814;SDS011;59659;41.520;23.794;2022-09-03T07:34:07;10.30;;;5.80;;
71814;SDS011;59659;41.520;23.794;2022-09-03T07:35:20;7.67;;;5.40;;
71814;SDS011;59659;41.520;23.794;2022-09-03T07:36:40;12.10;;;6.40;;
71814;SDS011;59659;41.520;23.794;2022-09-03T07:37:53;12.57;;;6.47;;
71814;SDS011;59659;41.520;23.794;2022-09-03T07:39:05;10.60;;;6.23;;
71814;SDS011;59659;41.520;23.794;2022-09-03T07:40:17;10.70;;;6.80;;
71814;SDS011;59659;41.520;23.794;2022-09-03T07:41:30;11.17;;;6.70;;
71814;SDS011;59659;41.520;23.794;2022-09-03T07:42:43;9.93;;;6.60;;
71814;SDS011;59659;41.520;23.794;2022-09-03T07:43:54;9.10;;;6.27;;
71814;SDS011;59659;41.520;23.794;2022-09-03T07:45:07;9.93;;;6.23;;
71814;SDS011;59659;41.520;23.794;2022-09-03T07:46:23;10.30;;;6.20;;
71814;SDS011;59659;41.520;23.794;2022-09-03T07:47:35;9.87;;;6.13;;
71814;SDS011;59659;41.520;23.794;2022-09-03T07:48:47;11.33;;;5.50;;
71814;SDS011;59659;41.520;23.794;2022-09-03T07:49:59;14.50;;;6.53;;
71814;SDS011;59659;41.520;23.794;2022-09-03T07:51:11;10.67;;;6.17;;
71814;SDS011;59659;41.520;23.794;2022-09-03T07:52:22;9.90;;;6.07;;
71814;SDS011;59659;41.520;23.794;2022-09-03T07:53:34;8.47;;;5.70;;
71814;SDS011;59659;41.520;23.794;2022-09-03T07:54:46;7.93;;;5.53;;
71814;SDS011;59659;41.520;23.794;2022-09-03T07:56:05;12.83;;;7.17;;
71814;SDS011;59659;41.520;23.794;2022-09-03T07:57:17;9.67;;;6.47;;
71814;SDS011;59659;41.520;23.794;2022-09-03T07:58:29;10.90;;;7.07;;
71814;SDS011;59659;41.520;23.794;2022-09-03T07:59:41;11.17;;;6.07;;
71814;SDS011;59659;41.520;23.794;2022-09-03T08:00:52;10.43;;;6.67;;
71814;SDS011;59659;41.520;23.794;2022-09-03T08:02:04;14.20;;;5.77;;
71814;SDS011;59659;41.520;23.794;2022-09-03T08:03:16;12.97;;;6.60;;
71814;SDS011;59659;41.520;23.794;2022-09-03T08:04:27;19.20;;;6.67;;